CheckWX is a tool to help pilots better visualize weather data.  It is not intended as a substitute for an official pre-flight weather briefing.

14:49:57 UTC

KSOW METAR
Show Low Regional Airport
Show Low, Arizona, USA
Current

35 mins ago

KSOW 221415Z AUTO 25004KT 10SM OVC022 01/M00 A3018 RMK AO2
Observed
Nov-22 @ 14:15 UTC
Wind
  • 250° at 4 KTS
Visibility
10 SM
Flight Rules
MVFR
Cloud Levels
  • Overcast at 2,200' AGL
Temperature
C / 34°F
Dewpoint
C / 32°F
Humidity
93%
Altimeter
30.18" Hg
Pressure
1022.02 hPa
Previous

55 mins ago

KSOW 221355Z AUTO 00000KT 10SM OVC019 01/M00 A3018 RMK AO2
Observed
Nov-22 @ 13:55 UTC
Visibility
10 SM
Flight Rules
MVFR
Cloud Levels
  • Overcast at 1,900' AGL
Temperature
C / 34°F
Dewpoint
C / 32°F
Humidity
93%
Altimeter
30.18" Hg
Pressure
1022.02 hPa
Previous

1 hour ago

KSOW 221335Z AUTO 29003KT 10SM BKN013 OVC019 00/M00 A3017 RMK AO2
Observed
Nov-22 @ 13:35 UTC
Wind
  • 290° at 3 KTS
Visibility
10 SM
Flight Rules
MVFR
Cloud Levels
  • Broken at 1,300' AGL
  • Overcast at 1,900' AGL
Temperature
C / 32°F
Dewpoint
C / 32°F
Humidity
100%
Altimeter
30.17" Hg
Pressure
1021.72 hPa